Time;durP1;ratioP1;P1;durP2;ratioP2;P2;SDS_P1;SDS_P2;PMS_P1;PMS_P2;Temp;Humidity;BMP_temperature;BMP_pressure;BME280_temperature;BME280_humidity;BME280_pressure;Samples;Min_cycle;Max_cycle;Signal;HPM_P1;HPM_P2
2022/12/25 00:00:05;;;;;;;25.10;8.33;;;;;;;-142.75;100.00;77487.72;5061950;28;20016;-65
2022/12/25 00:02:30;;;;;;;25.60;7.40;;;;;;;-142.75;100.00;77477.88;5061558;28;20720;-64
2022/12/25 00:04:56;;;;;;;25.02;7.65;;;;;;;-142.75;100.00;77483.78;5061810;28;20032;-63
2022/12/25 00:07:21;;;;;;;22.25;7.80;;;;;;;-142.75;100.00;77479.84;5060987;28;20039;-63
2022/12/25 00:09:46;;;;;;;20.90;7.20;;;;;;;-142.75;100.00;77483.78;5061993;28;20032;-66
2022/12/25 00:12:11;;;;;;;24.70;8.77;;;;;;;-142.75;100.00;77487.72;5061586;28;20424;-64
2022/12/25 00:14:37;;;;;;;24.17;7.90;;;;;;;-142.75;100.00;77497.56;5061292;28;20070;-64
2022/12/25 00:17:02;;;;;;;25.45;8.18;;;;;;;-142.75;100.00;77491.66;5060789;28;20437;-64
2022/12/25 00:19:27;;;;;;;24.15;7.65;;;;;;;-142.75;100.00;77481.81;5061259;28;20028;-64
2022/12/25 00:21:53;;;;;;;22.70;8.57;;;;;;;-142.75;100.00;77475.91;5061846;28;20108;-65
2022/12/25 00:24:18;;;;;;;23.67;7.95;;;;;;;-142.75;100.00;77470.00;5044079;28;20044;-66
2022/12/25 00:26:43;;;;;;;20.92;8.05;;;;;;;-142.75;100.00;77471.97;5060644;28;20024;-65
2022/12/25 00:29:11;;;;;;;21.73;8.10;;;;;;;-142.75;100.00;77471.97;5060701;28;20074;-65
2022/12/25 00:31:37;;;;;;;21.10;8.70;;;;;;;-142.75;100.00;77475.91;5061646;28;20069;-64
2022/12/25 00:34:02;;;;;;;22.67;8.65;;;;;;;-142.75;100.00;77481.81;5057370;28;20748;-64
2022/12/25 00:36:27;;;;;;;27.45;9.20;;;;;;;-142.75;100.00;77466.03;5059598;28;20035;-65
2022/12/25 00:38:53;;;;;;;27.98;8.50;;;;;;;-142.75;100.00;77456.22;5043287;28;20035;-65
2022/12/25 00:44:11;;;;;;;19.38;9.38;;;;;;;-142.75;100.00;77470.00;5025030;28;20605;-62
2022/12/25 00:46:36;;;;;;;22.48;8.98;;;;;;;-142.75;100.00;77458.16;5043374;28;20024;-63
2022/12/25 00:49:02;;;;;;;28.95;9.25;;;;;;;-142.75;100.00;77452.25;5061077;28;20035;-65
2022/12/25 00:51:28;;;;;;;22.67;8.77;;;;;;;-142.75;100.00;77456.22;5044072;28;20492;-65
2022/12/25 00:53:53;;;;;;;19.10;8.70;;;;;;;-142.75;100.00;77462.13;5061333;28;20060;-66
2022/12/25 00:56:18;;;;;;;20.92;8.75;;;;;;;-142.75;100.00;77464.09;5060711;28;20028;-62
2022/12/25 00:58:44;;;;;;;22.30;8.25;;;;;;;-142.75;100.00;77460.13;5059291;28;20037;-65
2022/12/25 01:01:10;;;;;;;;;;;;;;;-142.75;100.00;77456.22;5060988;28;20028;-65
2022/12/25 01:03:35;;;;;;;22.85;8.07;;;;;;;-142.75;100.00;77464.09;5060615;28;19912;-64
2022/12/25 01:06:05;;;;;;;24.05;8.52;;;;;;;-142.75;100.00;77464.09;5060345;28;20443;-62
2022/12/25 01:08:34;;;;;;;32.25;9.35;;;;;;;-142.75;100.00;77462.13;5043894;28;20028;-66
2022/12/25 01:11:02;;;;;;;21.77;8.40;;;;;;;-142.75;100.00;77462.13;5060349;28;20028;-65
2022/12/25 01:13:29;;;;;;;23.65;9.05;;;;;;;-142.75;100.00;77470.00;5060238;28;20032;-65
2022/12/25 01:15:54;;;;;;;24.15;9.00;;;;;;;-142.75;100.00;77471.97;5043911;28;20537;-64
2022/12/25 01:18:21;;;;;;;19.00;9.23;;;;;;;-142.75;100.00;77464.09;5059637;28;20109;-64
2022/12/25 01:20:47;;;;;;;28.95;9.52;;;;;;;-142.75;100.00;77462.13;5059962;28;20474;-63
2022/12/25 01:23:13;;;;;;;22.13;9.48;;;;;;;-142.75;100.00;77446.34;5060484;28;20021;-65
2022/12/25 01:25:38;;;;;;;22.98;9.88;;;;;;;-142.75;100.00;77450.28;5060567;28;20036;-65
2022/12/25 01:28:04;;;;;;;28.70;10.27;;;;;;;-142.75;100.00;77428.63;5059666;28;20525;-64
2022/12/25 01:30:30;;;;;;;26.77;9.88;;;;;;;-142.75;100.00;77424.69;5042884;28;20025;-65
2022/12/25 01:32:55;;;;;;;;;;;;;;;-142.75;100.00;77410.91;5060790;28;20598;-63
2022/12/25 01:35:20;;;;;;;35.67;10.32;;;;;;;-142.75;100.00;77422.72;5057742;28;20008;-63
2022/12/25 01:37:46;;;;;;;24.05;8.95;;;;;;;-142.75;100.00;77416.81;5055839;28;20516;-65
2022/12/25 01:40:11;;;;;;;20.30;9.15;;;;;;;-142.75;100.00;77420.75;5040129;28;20119;-66
2022/12/25 01:42:37;;;;;;;27.40;9.80;;;;;;;-142.75;100.00;77422.72;5058558;28;20035;-66
2022/12/25 01:45:40;;;;;;;20.27;9.05;;;;;;;-142.75;100.00;77405.00;5058490;28;20052;-65
2022/12/25 01:48:11;;;;;;;26.75;9.02;;;;;;;-142.75;100.00;77416.81;5041109;28;20040;-65
2022/12/25 01:50:39;;;;;;;21.83;8.85;;;;;;;-142.75;100.00;77420.75;5059186;28;20040;-64
2022/12/25 01:53:05;;;;;;;25.88;9.88;;;;;;;-142.75;100.00;77432.56;5058550;28;20029;-64
2022/12/25 01:55:31;;;;;;;21.73;8.48;;;;;;;-142.75;100.00;77422.72;5058723;28;20028;-66
2022/12/25 01:57:57;;;;;;;28.77;10.07;;;;;;;-142.75;100.00;77430.59;5057841;28;20036;-64
2022/12/25 02:00:22;;;;;;;22.67;9.57;;;;;;;-142.75;100.00;77430.59;5042913;28;20024;-65
2022/12/25 02:02:48;;;;;;;19.55;10.75;;;;;;;-142.75;100.00;77420.75;5059034;28;20097;-63
2022/12/25 02:05:23;;;;;;;22.75;9.80;;;;;;;-142.75;100.00;77438.47;5058356;28;20029;-66
2022/12/25 02:07:49;;;;;;;30.13;9.82;;;;;;;-142.75;100.00;77432.56;5057580;28;20159;-64
2022/12/25 02:10:16;;;;;;;19.88;9.55;;;;;;;-142.75;100.00;77436.50;5059751;28;20889;-65
2022/12/25 02:12:42;;;;;;;;;;;;;;;-142.75;100.00;77432.56;5063055;28;20032;-65
2022/12/25 02:15:11;;;;;;;21.60;9.65;;;;;;;-142.75;100.00;77418.78;5046098;28;19913;-64
2022/12/25 02:17:55;;;;;;;24.20;10.20;;;;;;;-142.75;100.00;77424.69;5045570;28;20024;-65
2022/12/25 02:20:49;;;;;;;28.48;9.85;;;;;;;-142.75;100.00;77426.66;5047839;28;20028;-63
2022/12/25 02:23:46;;;;;;;22.15;10.82;;;;;;;-142.75;100.00;77440.44;5062074;28;20020;-64
2022/12/25 02:26:25;;;;;;;24.80;11.05;;;;;;;-142.75;100.00;77424.69;5061134;28;20024;-66
2022/12/25 02:29:09;;;;;;;27.50;10.95;;;;;;;-142.75;100.00;77416.81;5062312;28;20377;-65
2022/12/25 02:31:42;;;;;;;25.85;10.75;;;;;;;-142.75;100.00;77418.78;5045119;28;20035;-66
2022/12/25 02:34:35;;;;;;;22.35;11.10;;;;;;;-142.75;100.00;77395.16;5041856;28;20028;-65
2022/12/25 02:37:13;;;;;;;22.23;10.77;;;;;;;-142.75;100.00;77395.16;5004402;28;20081;-65
2022/12/25 02:39:57;;;;;;;29.67;10.80;;;;;;;-142.75;100.00;77401.06;5006306;28;20025;-65
2022/12/25 03:08:07;;;;;;;25.10;14.23;;;;;;;-142.75;100.00;77342.00;5004296;28;20062;-62
2022/12/25 03:13:26;;;;;;;32.75;13.60;;;;;;;-142.75;100.00;77345.94;5003828;28;20249;-65
2022/12/25 03:18:36;;;;;;;30.85;14.02;;;;;;;-142.75;100.00;77365.63;5004174;28;20046;-65
2022/12/25 03:26:53;;;;;;;29.30;14.50;;;;;;;-142.75;100.00;77347.91;5003932;28;20508;-65
2022/12/25 03:32:18;;;;;;;32.58;13.85;;;;;;;-142.75;100.00;77349.88;5004949;28;20489;-65
2022/12/25 03:35:22;;;;;;;27.60;13.98;;;;;;;-142.75;100.00;77349.88;4985303;28;20058;-66
2022/12/25 04:37:40;;;;;;;16.63;8.27;;;;;;;-142.75;100.00;77365.63;5002681;28;20463;-65
2022/12/25 04:40:05;;;;;;;18.90;9.25;;;;;;;-142.75;100.00;77365.63;5002427;28;20537;-64
2022/12/25 04:42:31;;;;;;;23.77;8.15;;;;;;;-142.75;100.00;77365.63;5002038;28;20333;-65
2022/12/25 04:44:57;;;;;;;19.88;8.98;;;;;;;-142.75;100.00;77363.66;4984640;28;20325;-66
2022/12/25 04:47:22;;;;;;;20.13;8.20;;;;;;;-142.75;100.00;77347.91;4984235;28;20318;-66
2022/12/25 04:49:48;;;;;;;20.63;7.63;;;;;;;-142.75;100.00;77347.91;5002399;28;20318;-67
2022/12/25 04:52:14;;;;;;;16.65;7.78;;;;;;;-142.75;100.00;77355.78;5002258;28;20028;-66
2022/12/25 04:54:39;;;;;;;15.88;6.82;;;;;;;-142.75;100.00;77353.81;5001736;28;20331;-66
2022/12/25 04:57:05;;;;;;;11.60;6.57;;;;;;;-142.75;100.00;77365.63;5002222;28;20440;-67
2022/12/25 04:59:31;;;;;;;13.70;6.50;;;;;;;-142.75;100.00;77343.97;5002190;28;20357;-66
2022/12/25 05:01:56;;;;;;;15.25;6.60;;;;;;;-142.75;100.00;77353.81;5001996;28;20475;-66
2022/12/25 05:04:22;;;;;;;14.07;6.60;;;;;;;-142.75;100.00;77361.69;4984121;28;20464;-66
2022/12/25 05:06:47;;;;;;;15.88;6.13;;;;;;;-142.75;100.00;77361.69;5002200;28;20337;-64
2022/12/25 05:09:13;;;;;;;12.32;5.50;;;;;;;-142.75;100.00;77361.69;5001797;28;20354;-66
2022/12/25 05:11:38;;;;;;;14.60;4.95;;;;;;;-142.75;100.00;77367.59;5001869;28;20368;-66
2022/12/25 05:14:04;;;;;;;13.20;6.00;;;;;;;-142.75;100.00;77373.50;4983456;28;20385;-65
2022/12/25 05:16:29;;;;;;;14.30;5.75;;;;;;;-142.75;100.00;77369.56;5003022;28;20358;-66
2022/12/25 05:18:57;;;;;;;18.75;6.95;;;;;;;-142.75;100.00;77357.75;5001976;28;20405;-66
2022/12/25 05:21:22;;;;;;;12.45;5.65;;;;;;;-142.75;100.00;77365.63;5001401;28;20020;-67
2022/12/25 05:23:49;;;;;;;16.95;5.75;;;;;;;-142.75;100.00;77361.69;5001809;28;20429;-66
2022/12/25 05:26:18;;;;;;;13.65;5.55;;;;;;;-142.75;100.00;77359.72;5001767;28;20059;-66
2022/12/25 05:28:44;;;;;;;13.45;5.63;;;;;;;-142.75;100.00;77379.41;5001613;28;20139;-66
2022/12/25 05:31:09;;;;;;;12.48;5.57;;;;;;;-142.75;100.00;77359.72;5001619;28;20334;-66
2022/12/25 05:33:35;;;;;;;13.82;5.63;;;;;;;-142.75;100.00;77355.78;5001314;28;20212;-66
2022/12/25 05:36:06;;;;;;;14.75;4.57;;;;;;;-142.75;100.00;77367.59;5055167;22;20313;-68
2022/12/25 05:38:32;;;;;;;11.43;5.32;;;;;;;-142.75;100.00;77367.59;5042924;28;20046;-68
2022/12/25 05:40:57;;;;;;;;;;;;;;;-142.75;100.00;77365.63;5023004;28;20611;-66
2022/12/25 05:43:23;;;;;;;14.10;4.63;;;;;;;-142.75;100.00;77375.47;5042663;28;19911;-67
2022/12/25 05:45:49;;;;;;;10.88;5.05;;;;;;;-142.75;100.00;77377.44;5028632;28;20372;-67
2022/12/25 05:48:15;;;;;;;;;;;;;;;-142.75;100.00;77357.75;5021831;28;20059;-69
2022/12/25 05:50:41;;;;;;;14.35;4.55;;;;;;;-142.75;100.00;77363.66;5003053;28;20296;-67
2022/12/25 05:53:09;;;;;;;13.88;5.47;;;;;;;-142.75;100.00;77363.66;5023130;28;20032;-68
2022/12/25 05:55:36;;;;;;;11.70;5.50;;;;;;;-142.75;100.00;77357.75;5022193;28;20643;-66
2022/12/25 05:58:02;;;;;;;10.70;5.82;;;;;;;-142.75;100.00;77375.47;5023829;28;20173;-68
2022/12/25 06:00:28;;;;;;;9.15;5.22;;;;;;;-142.75;100.00;77363.66;5021466;28;20131;-67
2022/12/25 06:02:54;;;;;;;9.02;5.15;;;;;;;-142.75;100.00;77353.81;5021852;28;20326;-68
2022/12/25 06:05:19;;;;;;;12.90;5.45;;;;;;;-142.75;100.00;77361.69;5021025;28;20329;-68
2022/12/25 06:07:45;;;;;;;11.38;5.63;;;;;;;-142.75;100.00;77357.75;5022297;28;20325;-68
2022/12/25 06:10:10;;;;;;;10.85;5.57;;;;;;;-142.75;100.00;77369.56;5021847;28;20322;-67
2022/12/25 06:12:36;;;;;;;11.52;5.47;;;;;;;-142.75;100.00;77363.66;5021766;28;20397;-68
2022/12/25 06:15:01;;;;;;;10.05;5.13;;;;;;;-142.75;100.00;77369.56;5021917;28;20383;-67
2022/12/25 06:17:27;;;;;;;13.48;5.63;;;;;;;-142.75;100.00;77363.66;5022559;28;20346;-68
2022/12/25 06:19:53;;;;;;;11.85;5.95;;;;;;;-142.75;100.00;77349.88;5021353;28;20143;-67
2022/12/25 06:22:19;;;;;;;15.25;6.05;;;;;;;-142.75;100.00;77328.22;5021655;28;20020;-67
2022/12/25 06:24:44;;;;;;;10.93;5.38;;;;;;;-142.75;100.00;77326.25;5021589;28;20326;-67
2022/12/25 06:27:10;;;;;;;9.65;5.38;;;;;;;-142.75;100.00;77328.22;5021505;28;20244;-66
2022/12/25 06:29:35;;;;;;;11.90;5.30;;;;;;;-142.75;100.00;77324.28;5022366;28;20427;-67
2022/12/25 06:32:01;;;;;;;8.82;4.75;;;;;;;-142.75;100.00;77322.31;5022625;28;20444;-67
2022/12/25 06:34:26;;;;;;;10.10;5.57;;;;;;;-142.75;100.00;77342.00;5021794;28;20220;-67
2022/12/25 06:36:52;;;;;;;14.27;5.10;;;;;;;-142.75;100.00;77332.16;5023338;28;20136;-67
2022/12/25 06:39:18;;;;;;;11.43;5.18;;;;;;;-142.75;100.00;77343.97;5021353;28;20293;-67
2022/12/25 06:41:43;;;;;;;12.05;5.72;;;;;;;-142.75;100.00;77326.25;5021399;28;20024;-67
2022/12/25 06:44:09;;;;;;;13.68;5.05;;;;;;;-142.75;100.00;77318.38;5022653;28;20306;-68
2022/12/25 06:46:34;;;;;;;10.90;5.40;;;;;;;-142.75;100.00;77328.22;5020735;28;20458;-67
2022/12/25 06:49:00;;;;;;;12.45;5.68;;;;;;;-142.75;100.00;77316.41;5022420;28;20560;-68
2022/12/25 06:51:28;;;;;;;13.00;6.05;;;;;;;-142.75;100.00;77308.53;5021933;28;20333;-67
2022/12/25 06:53:55;;;;;;;10.20;5.93;;;;;;;-142.75;100.00;77296.72;5021727;28;20039;-68
2022/12/25 06:56:22;;;;;;;12.75;6.30;;;;;;;-142.75;100.00;77286.88;5020885;28;20023;-69
2022/12/25 06:59:00;;;;;;;13.45;7.32;;;;;;;-142.75;100.00;77288.84;5024365;28;20043;-67
2022/12/25 07:01:29;;;;;;;15.48;7.45;;;;;;;-142.75;100.00;77294.75;5024451;28;20020;-67
2022/12/25 07:04:01;;;;;;;13.40;7.15;;;;;;;-142.75;100.00;77288.84;5026557;28;20151;-67
2022/12/25 07:06:27;;;;;;;14.57;7.60;;;;;;;-142.75;100.00;77286.88;5024102;28;20051;-68
2022/12/25 07:08:52;;;;;;;12.30;7.13;;;;;;;-142.75;100.00;77310.50;5024560;28;20474;-67
2022/12/25 07:11:19;;;;;;;16.67;7.32;;;;;;;-142.75;100.00;77296.72;5005822;28;20422;-67
2022/12/25 07:13:44;;;;;;;16.00;7.25;;;;;;;-142.75;100.00;77290.81;5025649;28;20032;-67
2022/12/25 07:16:11;;;;;;;12.27;6.22;;;;;;;-142.75;100.00;77279.00;5025762;28;20459;-67
2022/12/25 07:18:36;;;;;;;12.27;6.80;;;;;;;-142.75;100.00;77282.94;5024582;28;20588;-66
2022/12/25 07:21:07;;;;;;;13.20;7.03;;;;;;;-142.75;100.00;77310.50;5026281;28;20059;-67
2022/12/25 07:23:32;;;;;;;13.10;6.07;;;;;;;-142.75;100.00;77298.69;5006795;28;20119;-68
2022/12/25 07:25:59;;;;;;;11.20;6.80;;;;;;;-142.75;100.00;77314.44;5005256;28;20174;-67
2022/12/25 07:28:26;;;;;;;16.17;7.13;;;;;;;-142.75;100.00;77298.69;5023853;28;20031;-68
2022/12/25 07:30:51;;;;;;;11.38;6.20;;;;;;;-142.75;100.00;77298.69;5024075;28;20131;-67
2022/12/25 07:33:18;;;;;;;13.05;6.63;;;;;;;-142.75;100.00;77306.56;5023760;28;20334;-68
2022/12/25 07:35:43;;;;;;;;;;;;;;;-142.75;100.00;77302.63;5024027;28;20040;-67
2022/12/25 07:38:09;;;;;;;12.27;6.65;;;;;;;-142.75;100.00;77302.63;5026247;28;20291;-66
2022/12/25 07:40:34;;;;;;;12.80;7.00;;;;;;;-142.75;100.00;77296.72;5024328;28;20361;-67
2022/12/25 07:43:00;;;;;;;6.72;4.28;;;;;;;-142.75;100.00;77304.59;5026024;28;20314;-67
2022/12/25 07:45:25;;;;;;;12.45;7.43;;;;;;;-142.75;100.00;77304.59;5023778;28;20193;-67
2022/12/25 07:47:51;;;;;;;12.85;7.25;;;;;;;-142.75;100.00;77310.50;5024392;28;20024;-68
2022/12/25 07:50:17;;;;;;;14.68;7.55;;;;;;;-142.75;100.00;77306.56;5024082;28;20337;-67
2022/12/25 07:52:42;;;;;;;16.73;7.75;;;;;;;-142.75;100.00;77296.72;5024356;28;20325;-67
2022/12/25 07:55:08;;;;;;;14.63;8.18;;;;;;;-142.75;100.00;77300.66;5005044;28;20365;-68
2022/12/25 07:57:35;;;;;;;15.07;7.47;;;;;;;-142.75;100.00;77292.78;5025491;28;20028;-68
2022/12/25 08:00:02;;;;;;;17.90;8.85;;;;;;;-142.75;100.00;77292.78;5005160;28;20050;-67
2022/12/25 08:02:28;;;;;;;19.25;8.80;;;;;;;-142.75;100.00;77294.75;5023889;28;20028;-67
2022/12/25 08:04:54;;;;;;;14.93;8.95;;;;;;;-142.75;100.00;77282.94;5024615;28;20499;-67
2022/12/25 08:07:19;;;;;;;;;;;;;;;-142.75;100.00;77277.03;5005645;28;20094;-67
2022/12/25 08:09:45;;;;;;;16.92;8.93;;;;;;;-142.75;100.00;77279.00;5023062;28;20236;-67
2022/12/25 08:12:10;;;;;;;18.52;10.13;;;;;;;-142.75;100.00;77294.75;5023727;28;20032;-67
2022/12/25 08:14:36;;;;;;;18.38;9.70;;;;;;;-142.75;100.00;77294.75;5023385;28;20345;-67
2022/12/25 08:17:01;;;;;;;19.05;9.65;;;;;;;-142.75;100.00;77300.66;5025181;28;20371;-68
2022/12/25 08:19:28;;;;;;;15.98;8.80;;;;;;;-142.75;100.00;77288.84;5025311;28;20379;-67
2022/12/25 08:21:54;;;;;;;16.13;8.65;;;;;;;-142.75;100.00;77290.81;5025065;28;20047;-67
2022/12/25 08:24:19;;;;;;;16.30;9.32;;;;;;;-142.75;100.00;77294.75;5025024;28;20020;-68
2022/12/25 08:26:45;;;;;;;16.67;8.48;;;;;;;-142.75;100.00;77294.75;5024268;28;20332;-67
2022/12/25 08:29:10;;;;;;;14.18;8.45;;;;;;;-142.75;100.00;77290.81;5023208;28;20503;-67
2022/12/25 08:31:36;;;;;;;14.82;7.65;;;;;;;-142.75;100.00;77294.75;5023140;28;20290;-67
2022/12/25 08:34:02;;;;;;;14.35;7.38;;;;;;;-142.75;100.00;77290.81;5022684;28;20327;-67
2022/12/25 08:36:28;;;;;;;13.50;7.03;;;;;;;-142.75;100.00;77290.81;5004123;28;20063;-67
2022/12/25 08:38:54;;;;;;;11.98;6.15;;;;;;;-142.75;100.00;77294.75;5023003;28;20204;-68
2022/12/25 08:41:19;;;;;;;13.98;6.85;;;;;;;-142.75;100.00;77286.88;5024972;28;20349;-67
2022/12/25 08:43:45;;;;;;;14.80;6.85;;;;;;;-142.75;100.00;77294.75;5023729;28;20315;-67
2022/12/25 08:46:11;;;;;;;16.13;8.07;;;;;;;-142.75;100.00;77302.63;5022848;28;20024;-67
2022/12/25 08:48:36;;;;;;;;;;;;;;;-142.75;100.00;77290.81;5023883;28;20031;-68
2022/12/25 08:51:02;;;;;;;13.15;6.82;;;;;;;-142.75;100.00;77298.69;5003734;28;20209;-68
2022/12/25 08:53:28;;;;;;;12.55;6.60;;;;;;;-142.75;100.00;77300.66;5024713;28;20020;-66
2022/12/25 08:56:03;;;;;;;19.00;10.05;;;;;;;-142.75;100.00;77300.66;5003869;28;20553;-68
2022/12/25 08:58:29;;;;;;;10.98;6.70;;;;;;;-142.75;100.00;77302.63;5024605;28;20055;-67
2022/12/25 09:00:55;;;;;;;15.50;5.57;;;;;;;-142.75;100.00;77318.38;5003939;28;20346;-67
2022/12/25 09:03:20;;;;;;;;;;;;;;;-142.75;100.00;77310.50;5022753;28;20117;-67
2022/12/25 09:05:46;;;;;;;14.73;4.55;;;;;;;-142.75;100.00;77310.50;5022632;28;20123;-67
2022/12/25 09:08:11;;;;;;;11.88;5.63;;;;;;;-142.75;100.00;77334.13;5021965;28;20430;-68
2022/12/25 09:10:37;;;;;;;16.33;6.85;;;;;;;-142.75;100.00;77342.00;5024481;28;20439;-67
2022/12/25 09:13:03;;;;;;;11.40;5.60;;;;;;;-142.75;100.00;77340.03;5023737;28;20325;-67
2022/12/25 09:15:30;;;;;;;10.25;5.40;;;;;;;-142.75;100.00;77343.97;5023723;28;20576;-66
2022/12/25 09:17:55;;;;;;;12.73;5.75;;;;;;;-142.75;100.00;77351.84;5022844;28;20027;-67
2022/12/25 09:20:21;;;;;;;13.00;5.72;;;;;;;-142.75;100.00;77353.81;5022240;28;20338;-67
2022/12/25 09:22:46;;;;;;;12.98;5.78;;;;;;;-142.75;100.00;77347.91;5023574;28;20448;-70
2022/12/25 09:25:12;;;;;;;14.60;5.57;;;;;;;-142.75;100.00;77342.00;5021729;28;20408;-67
2022/12/25 09:27:38;;;;;;;13.02;6.95;;;;;;;-142.75;100.00;77342.00;5008274;28;20333;-67
2022/12/25 09:30:04;;;;;;;11.40;6.28;;;;;;;-142.75;100.00;77330.19;5022103;28;20333;-67
2022/12/25 09:32:29;;;;;;;15.15;6.50;;;;;;;-142.75;100.00;77340.03;5023943;28;20028;-66
2022/12/25 09:34:55;;;;;;;13.85;5.93;;;;;;;-142.75;100.00;77353.81;5021803;28;20322;-67
2022/12/25 09:37:20;;;;;;;17.85;8.55;;;;;;;-142.75;100.00;77340.03;5024170;28;20333;-67
2022/12/25 09:39:46;;;;;;;20.27;7.22;;;;;;;-142.75;100.00;77340.03;5004142;28;20019;-66
2022/12/25 09:42:22;;;;;;;14.10;6.75;;;;;;;-142.75;100.00;77340.03;5021712;28;20482;-68
2022/12/25 09:44:53;;;;;;;15.38;6.85;;;;;;;-142.75;100.00;77330.19;5023093;28;20016;-66
2022/12/25 09:47:26;;;;;;;13.73;6.78;;;;;;;-142.75;100.00;77312.47;5003138;28;20105;-68
2022/12/25 09:50:02;;;;;;;17.52;6.40;;;;;;;-142.75;100.00;77318.38;5003095;28;20139;-69
2022/12/25 09:52:43;;;;;;;13.88;6.82;;;;;;;-142.75;100.00;77298.69;4986756;28;20825;-67
2022/12/25 09:55:09;;;;;;;16.17;6.80;;;;;;;-142.75;100.00;77324.28;5003016;28;20024;-67
2022/12/25 09:57:34;;;;;;;18.02;6.22;;;;;;;-142.75;100.00;77308.53;5002951;28;20452;-67
2022/12/25 10:00:00;;;;;;;14.05;6.93;;;;;;;-142.75;100.00;77298.69;5021712;28;20319;-66
2022/12/25 10:03:00;;;;;;;15.88;6.28;;;;;;;-142.75;100.00;77290.81;5004966;28;20326;-66
2022/12/25 10:05:43;;;;;;;12.05;6.18;;;;;;;-142.75;100.00;77296.72;5018481;28;20063;-67
2022/12/25 10:08:11;;;;;;;15.35;6.50;;;;;;;-142.75;100.00;77284.91;5003170;28;20027;-68
2022/12/25 10:10:45;;;;;;;10.93;5.90;;;;;;;-142.75;100.00;77267.19;5022321;28;20024;-67
2022/12/25 10:13:29;;;;;;;20.25;9.48;;;;;;;-142.75;100.00;77265.22;5021096;28;20024;-67
2022/12/25 10:16:28;;;;;;;12.05;6.78;;;;;;;-142.75;100.00;77269.16;5003016;28;20124;-67
2022/12/25 10:19:19;;;;;;;15.43;6.70;;;;;;;-142.75;100.00;77263.25;5001431;28;20823;-67
2022/12/25 10:21:46;;;;;;;11.13;5.50;;;;;;;-142.75;100.00;77257.34;5018984;28;20024;-70
2022/12/25 10:24:42;;;;;;;11.13;5.75;;;;;;;-142.75;100.00;77247.50;5005047;28;20024;-68
2022/12/25 10:27:43;;;;;;;13.95;5.72;;;;;;;-142.75;100.00;77257.34;5020618;28;20599;-69
2022/12/25 10:30:21;;;;;;;13.02;6.88;;;;;;;-142.75;100.00;77259.31;5019936;28;20198;-67
2022/12/25 10:32:47;;;;;;;10.80;5.60;;;;;;;-142.75;100.00;77263.25;5025115;28;20024;-67
2022/12/25 10:35:19;;;;;;;11.98;6.55;;;;;;;-142.75;100.00;77251.44;5026667;28;20062;-70
2022/12/25 10:37:52;;;;;;;10.85;5.72;;;;;;;-142.75;100.00;77255.38;5024974;28;20039;-68
2022/12/25 10:40:23;;;;;;;12.27;6.85;;;;;;;-142.75;100.00;77243.56;5026027;28;20028;-68
2022/12/25 10:43:13;;;;;;;15.77;6.22;;;;;;;-142.75;100.00;77243.56;5025389;28;20109;-67
2022/12/25 10:45:46;;;;;;;13.40;6.90;;;;;;;-142.75;100.00;77243.56;5023706;28;20541;-66
2022/12/25 10:48:21;;;;;;;13.15;7.65;;;;;;;-142.75;100.00;77231.75;5026063;28;20676;-67
2022/12/25 10:50:48;;;;;;;17.42;6.90;;;;;;;-142.75;100.00;77229.78;5016985;28;20833;-67
2022/12/25 10:53:21;;;;;;;16.15;7.30;;;;;;;-142.75;100.00;77235.69;5025131;28;20032;-66
2022/12/25 10:56:02;;;;;;;13.48;6.93;;;;;;;-142.75;100.00;77219.94;5005973;28;20031;-65
2022/12/25 10:58:28;;;;;;;11.32;6.40;;;;;;;-142.75;100.00;77204.19;5024382;28;20104;-66
2022/12/25 11:00:58;;;;;;;;;;;;;;;-142.75;100.00;77180.56;5025470;28;20028;-67
2022/12/25 11:03:28;;;;;;;15.27;6.57;;;;;;;-142.75;100.00;77188.44;5025585;28;19912;-67
2022/12/25 11:05:54;;;;;;;11.77;6.63;;;;;;;-142.75;100.00;77192.38;5024319;28;20087;-67
2022/12/25 11:08:21;;;;;;;;;;;;;;;-142.75;100.00;77190.41;5026686;28;20109;-67
2022/12/25 11:11:05;;;;;;;13.00;6.22;;;;;;;-142.75;100.00;77176.63;5023622;28;19912;-68
2022/12/25 11:13:35;;;;;;;12.45;6.07;;;;;;;-142.75;100.00;77188.44;5024297;28;20063;-67
2022/12/25 11:16:03;;;;;;;13.02;6.38;;;;;;;-142.75;100.00;77180.56;5025034;28;20137;-67
2022/12/25 11:18:34;;;;;;;13.55;7.05;;;;;;;-142.75;100.00;77172.69;5023337;28;20051;-67
2022/12/25 11:21:02;;;;;;;11.77;5.85;;;;;;;-142.75;100.00;77184.50;5025158;28;20116;-67
2022/12/25 11:23:30;;;;;;;13.60;6.65;;;;;;;-142.75;100.00;77180.56;5023486;28;20109;-67
2022/12/25 11:25:55;;;;;;;11.30;6.90;;;;;;;-142.75;100.00;77180.56;5023815;28;20024;-67
2022/12/25 11:28:21;;;;;;;11.57;6.55;;;;;;;-142.75;100.00;77166.78;5023828;28;20463;-67
2022/12/25 11:30:52;;;;;;;14.50;6.57;;;;;;;-142.75;100.00;77166.78;5023727;28;20306;-67
2022/12/25 11:33:19;;;;;;;11.18;6.38;;;;;;;-142.75;100.00;77154.97;5024960;28;20144;-67
2022/12/25 11:35:51;;;;;;;15.13;6.13;;;;;;;-142.75;100.00;77149.06;5041214;22;20646;-67
2022/12/25 11:38:17;;;;;;;13.35;7.20;;;;;;;-142.75;100.00;77141.19;5003975;28;20050;-66
2022/12/25 11:40:48;;;;;;;;;;;;;;;-142.75;100.00;77127.41;5004098;28;20021;-67
2022/12/25 11:43:19;;;;;;;15.18;7.35;;;;;;;-142.75;100.00;77147.09;4997135;28;19916;-67
2022/12/25 11:45:50;;;;;;;14.93;6.82;;;;;;;-142.75;100.00;77166.78;4997888;28;20584;-67
2022/12/25 11:48:39;;;;;;;12.48;6.32;;;;;;;-142.75;100.00;77151.03;4985827;28;20078;-67
2022/12/25 11:51:06;;;;;;;15.55;6.55;;;;;;;-142.75;100.00;77149.06;5003758;28;20028;-66
2022/12/25 11:53:43;;;;;;;15.70;7.47;;;;;;;-142.75;100.00;77158.91;5003611;28;20110;-67
2022/12/25 11:56:16;;;;;;;13.90;6.85;;;;;;;-142.75;100.00;77153.00;4992203;28;20652;-66
2022/12/25 11:58:45;;;;;;;12.18;5.82;;;;;;;-142.75;100.00;77127.41;4985048;28;20127;-67
2022/12/25 12:01:51;;;;;;;11.10;5.95;;;;;;;-142.75;100.00;77127.41;5003239;28;20632;-66
2022/12/25 12:04:22;;;;;;;14.10;6.65;;;;;;;-142.75;100.00;77139.22;4914308;28;20617;-66
2022/12/25 12:06:57;;;;;;;13.57;7.22;;;;;;;-142.75;100.00;77137.25;4966849;28;20042;-67
2022/12/25 12:10:03;;;;;;;13.20;7.13;;;;;;;-142.75;100.00;77133.31;5001824;28;20032;-67
2022/12/25 12:12:59;;;;;;;12.10;5.82;;;;;;;-142.75;100.00;77149.06;4974359;28;20044;-67
2022/12/25 12:15:34;;;;;;;13.30;5.72;;;;;;;-142.75;100.00;77135.28;5004825;28;20021;-67
2022/12/25 12:18:27;;;;;;;21.23;9.55;;;;;;;-142.75;100.00;77131.34;5003456;28;20024;-67
2022/12/25 12:21:01;;;;;;;12.65;6.70;;;;;;;-142.75;100.00;77139.22;5003837;28;20028;-66
2022/12/25 12:23:29;;;;;;;11.40;6.82;;;;;;;-142.75;100.00;77145.13;5003420;28;20107;-67
2022/12/25 12:25:56;;;;;;;15.65;6.93;;;;;;;-142.75;100.00;77160.88;5004855;28;20028;-67
2022/12/25 12:28:43;;;;;;;12.88;6.95;;;;;;;-142.75;100.00;77153.00;5011584;28;20032;-67
2022/12/25 12:31:09;;;;;;;14.73;7.90;;;;;;;-142.75;100.00;77172.69;5003981;28;20029;-67
2022/12/25 12:33:41;;;;;;;12.52;7.50;;;;;;;-142.75;100.00;77141.19;5017173;28;20290;-67
2022/12/25 12:36:12;;;;;;;14.43;8.18;;;;;;;-142.75;100.00;77131.34;5016283;28;20035;-67
2022/12/25 12:38:42;;;;;;;16.67;6.97;;;;;;;-142.75;100.00;77137.25;5012870;28;20032;-66
2022/12/25 12:41:10;;;;;;;15.70;7.13;;;;;;;-142.75;100.00;77129.38;5021822;28;20097;-69
2022/12/25 12:43:53;;;;;;;15.98;8.43;;;;;;;-142.75;100.00;77119.53;5002820;28;20329;-67
2022/12/25 12:46:26;;;;;;;14.48;8.00;;;;;;;-142.75;100.00;77129.38;4982088;28;20188;-64
2022/12/25 12:49:05;;;;;;;15.80;8.23;;;;;;;-142.75;100.00;77133.31;4976678;28;20051;-65
2022/12/25 12:51:34;;;;;;;13.55;6.95;;;;;;;-142.75;100.00;77113.63;5002031;28;20110;-66
2022/12/25 12:54:19;;;;;;;12.52;7.13;;;;;;;-142.75;100.00;77105.75;5001869;28;20055;-66
2022/12/25 12:57:28;;;;;;;13.05;7.32;;;;;;;-142.75;100.00;77093.94;5003833;28;20617;-65